Time;durP1;ratioP1;P1;durP2;ratioP2;P2;SDS_P1;SDS_P2;PMS_P1;PMS_P2;Temp;Humidity;BMP_temperature;BMP_pressure;BME280_temperature;BME280_humidity;BME280_pressure;Samples;Min_cycle;Max_cycle;Signal;HPM_P1;HPM_P2
2024/02/09 00:01:49;;;;;;;;;;;17.60;42.90;;;;;;1549490;76;742;-71
2024/02/09 00:03:53;;;;;;;;;;;17.60;42.90;;;;;;1548493;76;1135;-70
2024/02/09 00:05:54;;;;;;;;;;;17.60;42.90;;;;;;1550187;75;1990;-70
2024/02/09 00:08:00;;;;;;;;;;;17.60;42.90;;;;;;1545852;75;1520;-70
2024/02/09 00:10:00;;;;;;;;;;;17.60;42.90;;;;;;1545768;75;1616;-70
2024/02/09 00:12:03;;;;;;;;;;;17.60;42.90;;;;;;1543372;76;725;-71
2024/02/09 00:14:05;;;;;;;;;;;17.60;42.90;;;;;;1544496;75;1620;-71
2024/02/09 00:16:07;;;;;;;;;;;17.60;42.90;;;;;;1544442;76;685;-71
2024/02/09 00:18:10;;;;;;;;;;;17.60;42.90;;;;;;1554388;75;735;-70
2024/02/09 00:20:12;;;;;;;;;;;17.60;42.90;;;;;;1546461;76;1927;-69
2024/02/09 00:22:14;;;;;;;;;;;17.60;42.90;;;;;;1549545;76;784;-70
2024/02/09 00:24:16;;;;;;;;;;;17.60;42.90;;;;;;1548635;76;1143;-71
2024/02/09 00:26:18;;;;;;;;;;;17.60;43.00;;;;;;1549668;75;727;-71
2024/02/09 00:28:20;;;;;;;;;;;17.60;43.00;;;;;;1557078;75;761;-69
2024/02/09 00:30:24;;;;;;;;;;;17.60;42.90;;;;;;1545738;75;767;-70
2024/02/09 00:32:25;;;;;;;;;;;17.60;43.00;;;;;;1536647;76;1237;-70
2024/02/09 00:34:27;;;;;;;;;;;17.60;42.90;;;;;;1546878;76;716;-70
2024/02/09 00:36:31;;;;;;;;;;;17.60;42.90;;;;;;1543688;76;767;-70
2024/02/09 00:38:36;;;;;;;;;;;17.60;42.90;;;;;;1542761;75;1583;-70
2024/02/09 00:40:36;;;;;;;;;;;17.60;42.90;;;;;;1549799;76;1903;-70
2024/02/09 00:42:40;;;;;;;;;;;17.60;42.90;;;;;;1546851;75;1161;-71
2024/02/09 00:44:45;;;;;;;;;;;17.60;42.90;;;;;;1547004;75;708;-69
2024/02/09 00:46:50;;;;;;;;;;;17.60;42.90;;;;;;1543521;75;779;-69
2024/02/09 00:48:50;;;;;;;;;;;17.60;43.00;;;;;;1540098;75;1641;-71
2024/02/09 00:50:52;;;;;;;;;;;17.60;43.00;;;;;;1553997;75;665;-71
2024/02/09 00:52:54;;;;;;;;;;;17.60;42.90;;;;;;1551149;76;1143;-70
2024/02/09 00:54:56;;;;;;;;;;;17.60;42.90;;;;;;1547917;76;615;-71
2024/02/09 00:56:58;;;;;;;;;;;17.60;42.90;;;;;;1550592;76;570;-69
2024/02/09 00:59:01;;;;;;;;;;;17.60;42.90;;;;;;1548897;76;1928;-71
2024/02/09 01:01:03;;;;;;;;;;;17.60;42.90;;;;;;1548441;75;712;-71
2024/02/09 01:03:05;;;;;;;;;;;17.60;42.90;;;;;;1543678;75;1162;-71
2024/02/09 01:05:14;;;;;;;;;;;17.60;43.00;;;;;;1539874;76;613;-70
2024/02/09 01:07:11;;;;;;;;;;;17.60;43.00;;;;;;1543361;75;1647;-71
2024/02/09 01:09:13;;;;;;;;;;;17.60;43.00;;;;;;1545423;75;739;-71
2024/02/09 01:11:16;;;;;;;;;;;17.60;42.90;;;;;;1551670;76;746;-70
2024/02/09 02:45:59;;;;;;;;;;;17.60;43.00;;;;;;1548012;75;629;-71
2024/02/09 03:04:20;;;;;;;;;;;17.60;43.00;;;;;;1541371;76;1658;-70
2024/02/09 03:06:22;;;;;;;;;;;17.60;43.00;;;;;;1544867;75;677;-70
2024/02/09 03:08:24;;;;;;;;;;;17.60;43.00;;;;;;1552121;75;1555;-71
2024/02/09 03:10:26;;;;;;;;;;;17.60;43.00;;;;;;1550758;75;713;-70
2024/02/09 03:12:28;;;;;;;;;;;17.60;43.00;;;;;;1545830;76;1100;-71
2024/02/09 03:14:30;;;;;;;;;;;17.60;43.00;;;;;;1553612;76;745;-71
2024/02/09 03:16:32;;;;;;;;;;;17.60;43.00;;;;;;1552532;75;720;-71
2024/02/09 03:18:34;;;;;;;;;;;17.60;43.00;;;;;;1544668;75;685;-71
2024/02/09 03:20:40;;;;;;;;;;;17.60;43.00;;;;;;1550598;76;1935;-71
2024/02/09 03:22:39;;;;;;;;;;;17.60;43.00;;;;;;1547100;76;1145;-71
2024/02/09 03:24:41;;;;;;;;;;;17.60;43.00;;;;;;1550644;76;808;-70
2024/02/09 03:26:43;;;;;;;;;;;17.60;43.00;;;;;;1545717;76;766;-70
2024/02/09 03:28:45;;;;;;;;;;;17.60;43.00;;;;;;1548195;76;739;-71
2024/02/09 03:30:47;;;;;;;;;;;17.60;43.00;;;;;;1544626;75;740;-71
2024/02/09 03:32:50;;;;;;;;;;;17.60;43.00;;;;;;1545376;75;1225;-72
2024/02/09 03:34:52;;;;;;;;;;;17.60;43.00;;;;;;1550194;76;654;-71
2024/02/09 03:36:54;;;;;;;;;;;17.60;43.00;;;;;;1547909;76;629;-71
2024/02/09 03:38:56;;;;;;;;;;;17.60;43.00;;;;;;1545072;75;728;-71
2024/02/09 03:40:58;;;;;;;;;;;17.60;43.00;;;;;;1550179;75;1935;-71
2024/02/09 03:43:00;;;;;;;;;;;17.60;43.00;;;;;;1546090;75;1122;-71
2024/02/09 03:45:04;;;;;;;;;;;17.60;43.10;;;;;;1546292;76;796;-71
2024/02/09 03:47:05;;;;;;;;;;;17.60;43.00;;;;;;1547093;75;1556;-70
2024/02/09 03:49:11;;;;;;;;;;;17.60;43.10;;;;;;1547225;76;591;-69
2024/02/09 03:51:10;;;;;;;;;;;17.60;43.00;;;;;;1542537;76;1490;-71
2024/02/09 03:53:14;;;;;;;;;;;17.60;43.00;;;;;;1543137;76;1155;-72
2024/02/09 03:55:21;;;;;;;;;;;17.60;43.00;;;;;;1547101;75;1575;-71
2024/02/09 03:57:23;;;;;;;;;;;17.60;43.00;;;;;;1547904;75;1087;-71
2024/02/09 03:59:25;;;;;;;;;;;17.60;43.00;;;;;;1549688;76;671;-69
2024/02/09 04:01:26;;;;;;;;;;;17.60;43.00;;;;;;1556311;76;1942;-70
2024/02/09 04:03:29;;;;;;;;;;;17.60;43.00;;;;;;1550867;75;1252;-71
2024/02/09 04:05:31;;;;;;;;;;;17.60;43.00;;;;;;1538023;75;706;-71
2024/02/09 04:07:33;;;;;;;;;;;17.60;43.00;;;;;;1544525;75;1351;-71
2024/02/09 04:09:35;;;;;;;;;;;17.60;43.00;;;;;;1553205;75;711;-71
2024/02/09 04:11:37;;;;;;;;;;;17.60;43.00;;;;;;1550185;76;737;-71
2024/02/09 04:13:40;;;;;;;;;;;17.60;43.00;;;;;;1542113;76;1134;-71
2024/02/09 04:15:42;;;;;;;;;;;17.60;43.00;;;;;;1547167;75;705;-71
2024/02/09 04:17:44;;;;;;;;;;;17.60;43.10;;;;;;1545978;75;684;-68
2024/02/09 04:19:46;;;;;;;;;;;17.60;43.00;;;;;;1554859;75;1934;-71
2024/02/09 04:21:48;;;;;;;;;;;17.60;43.10;;;;;;1551683;76;677;-71
2024/02/09 04:23:51;;;;;;;;;;;17.50;43.10;;;;;;1549760;75;1139;-69
2024/02/09 04:25:53;;;;;;;;;;;17.60;43.00;;;;;;1550872;75;703;-72
2024/02/09 04:27:55;;;;;;;;;;;17.60;43.00;;;;;;1545994;76;741;-71
2024/02/09 04:29:57;;;;;;;;;;;17.60;43.00;;;;;;1547030;75;663;-71
2024/02/09 04:32:01;;;;;;;;;;;17.60;43.00;;;;;;1547571;75;687;-70
2024/02/09 04:34:02;;;;;;;;;;;17.60;43.10;;;;;;1544383;75;1265;-68
2024/02/09 04:36:05;;;;;;;;;;;17.60;43.00;;;;;;1545289;75;692;-70
2024/02/09 04:38:07;;;;;;;;;;;17.60;43.00;;;;;;1547958;75;684;-69
2024/02/09 04:40:09;;;;;;;;;;;17.60;43.00;;;;;;1546257;76;1940;-70
2024/02/09 04:42:11;;;;;;;;;;;17.60;43.00;;;;;;1546037;75;710;-71
2024/02/09 04:44:12;;;;;;;;;;;17.60;43.10;;;;;;1548401;76;1103;-70
2024/02/09 04:46:16;;;;;;;;;;;17.60;43.10;;;;;;1550609;76;724;-69
2024/02/09 04:48:18;;;;;;;;;;;17.60;43.10;;;;;;1540269;76;1573;-70
2024/02/09 04:50:21;;;;;;;;;;;17.60;43.10;;;;;;1546022;76;684;-69
2024/02/09 04:52:27;;;;;;;;;;;17.60;43.10;;;;;;1545564;76;727;-70
2024/02/09 04:54:26;;;;;;;;;;;17.60;43.00;;;;;;1544797;75;1046;-71
2024/02/09 04:56:33;;;;;;;;;;;17.60;43.00;;;;;;1546139;75;785;-70
2024/02/09 04:58:32;;;;;;;;;;;17.60;43.00;;;;;;1549987;76;1553;-68
2024/02/09 05:00:35;;;;;;;;;;;17.60;43.00;;;;;;1554313;76;1932;-71
2024/02/09 05:02:38;;;;;;;;;;;17.60;43.00;;;;;;1543064;76;1140;-71
2024/02/09 05:04:39;;;;;;;;;;;17.60;43.00;;;;;;1556809;75;781;-71
2024/02/09 05:06:42;;;;;;;;;;;17.60;43.10;;;;;;1543040;76;670;-70
2024/02/09 05:08:44;;;;;;;;;;;17.60;43.10;;;;;;1544036;75;1423;-71
2024/02/09 05:10:46;;;;;;;;;;;17.60;43.00;;;;;;1542591;76;764;-71
2024/02/09 05:12:48;;;;;;;;;;;17.60;43.00;;;;;;1544416;76;1104;-70
2024/02/09 05:14:54;;;;;;;;;;;17.60;43.10;;;;;;1550955;75;741;-71
2024/02/09 05:16:54;;;;;;;;;;;17.60;43.00;;;;;;1547390;75;982;-71
2024/02/09 05:18:56;;;;;;;;;;;17.60;43.00;;;;;;1536912;76;788;-71
2024/02/09 05:20:59;;;;;;;;;;;17.60;43.10;;;;;;1549670;76;1915;-71
2024/02/09 05:23:01;;;;;;;;;;;17.60;43.00;;;;;;1550169;76;1161;-70
2024/02/09 05:25:03;;;;;;;;;;;17.60;43.00;;;;;;1549465;76;711;-69
2024/02/09 05:27:05;;;;;;;;;;;17.60;43.10;;;;;;1539583;76;687;-70
2024/02/09 05:29:07;;;;;;;;;;;17.60;43.00;;;;;;1543399;76;850;-71
2024/02/09 05:31:12;;;;;;;;;;;17.60;43.00;;;;;;1538606;76;649;-69
2024/02/09 05:33:16;;;;;;;;;;;17.60;43.10;;;;;;1540349;75;1181;-71
2024/02/09 05:35:18;;;;;;;;;;;17.60;43.10;;;;;;1540598;75;1708;-70
2024/02/09 05:37:20;;;;;;;;;;;17.60;43.10;;;;;;1544095;76;717;-70
2024/02/09 05:39:22;;;;;;;;;;;17.60;43.10;;;;;;1551164;74;704;-70
2024/02/09 05:41:24;;;;;;;;;;;17.60;43.00;;;;;;1548387;76;1917;-70
2024/02/09 05:43:25;;;;;;;;;;;17.60;43.00;;;;;;1546123;75;1176;-70
2024/02/09 05:45:28;;;;;;;;;;;17.60;43.10;;;;;;1545122;76;666;-71
2024/02/09 05:47:30;;;;;;;;;;;17.60;43.00;;;;;;1541238;76;723;-69
2024/02/09 05:49:32;;;;;;;;;;;17.60;43.00;;;;;;1542700;76;738;-70
2024/02/09 05:51:34;;;;;;;;;;;17.60;43.00;;;;;;1542614;75;655;-70
2024/02/09 05:53:36;;;;;;;;;;;17.60;43.00;;;;;;1553989;76;1167;-69
2024/02/09 05:55:38;;;;;;;;;;;17.60;43.00;;;;;;1553354;76;852;-70
2024/02/09 05:57:40;;;;;;;;;;;17.60;43.00;;;;;;1535416;76;638;-70
2024/02/09 05:59:43;;;;;;;;;;;17.60;43.00;;;;;;1535411;76;737;-69
2024/02/09 06:01:46;;;;;;;;;;;17.60;43.00;;;;;;1547219;75;1933;-70
2024/02/09 06:03:48;;;;;;;;;;;18.00;43.20;;;;;;1553225;75;1134;-69
2024/02/09 06:05:50;;;;;;;;;;;17.60;43.10;;;;;;1535871;76;686;-68
2024/02/09 06:07:52;;;;;;;;;;;17.60;43.10;;;;;;1544056;76;1510;-70
2024/02/09 06:09:54;;;;;;;;;;;17.60;43.00;;;;;;1545615;75;726;-70
2024/02/09 06:11:58;;;;;;;;;;;17.60;43.00;;;;;;1541489;75;628;-70
2024/02/09 06:14:00;;;;;;;;;;;17.60;43.00;;;;;;1557229;75;2004;-70
2024/02/09 06:16:02;;;;;;;;;;;17.60;43.00;;;;;;1553951;75;682;-70
2024/02/09 06:18:04;;;;;;;;;;;17.60;43.10;;;;;;1548844;75;721;-70
2024/02/09 06:20:08;;;;;;;;;;;17.60;43.00;;;;;;1547471;75;708;-70
2024/02/09 06:22:12;;;;;;;;;;;17.50;43.00;;;;;;1559293;75;1926;-70
2024/02/09 06:24:13;;;;;;;;;;;17.60;43.10;;;;;;1540633;76;1629;-70
2024/02/09 06:26:18;;;;;;;;;;;17.60;43.00;;;;;;1544657;75;716;-69
2024/02/09 06:28:20;;;;;;;;;;;17.60;43.10;;;;;;1548577;76;594;-71
2024/02/09 06:30:22;;;;;;;;;;;17.60;43.00;;;;;;1547918;76;760;-69
2024/02/09 06:32:24;;;;;;;;;;;17.60;43.00;;;;;;1549353;75;752;-70
2024/02/09 06:34:26;;;;;;;;;;;17.60;43.10;;;;;;1558229;75;738;-69
2024/02/09 06:36:29;;;;;;;;;;;17.60;43.10;;;;;;1544188;76;811;-70
2024/02/09 06:38:31;;;;;;;;;;;17.60;43.10;;;;;;1556541;75;778;-69
2024/02/09 06:40:34;;;;;;;;;;;17.60;43.00;;;;;;1551713;75;1908;-71
2024/02/09 06:42:36;;;;;;;;;;;17.60;43.00;;;;;;1542054;75;1099;-69
2024/02/09 06:44:42;;;;;;;;;;;17.60;43.00;;;;;;1544832;76;746;-69
2024/02/09 06:46:42;;;;;;;;;;;17.60;43.00;;;;;;1545278;76;1073;-68
2024/02/09 06:48:48;;;;;;;;;;;17.60;43.00;;;;;;1548442;75;620;-69
2024/02/09 06:50:48;;;;;;;;;;;17.60;43.10;;;;;;1542054;76;947;-69
2024/02/09 06:52:50;;;;;;;;;;;17.60;43.00;;;;;;1547286;76;1166;-70
2024/02/09 06:54:54;;;;;;;;;;;17.60;43.00;;;;;;1552076;76;723;-68
2024/02/09 06:56:55;;;;;;;;;;;17.60;43.00;;;;;;1554085;75;992;-69
2024/02/09 06:59:00;;;;;;;;;;;17.60;43.00;;;;;;1545056;75;759;-69
2024/02/09 07:01:00;;;;;;;;;;;17.60;43.10;;;;;;1548093;75;1925;-69
2024/02/09 07:03:03;;;;;;;;;;;17.60;43.00;;;;;;1537897;76;1162;-70
2024/02/09 07:05:06;;;;;;;;;;;17.60;43.00;;;;;;1551934;75;734;-69
2024/02/09 07:07:08;;;;;;;;;;;17.60;43.00;;;;;;1545295;75;1362;-69
2024/02/09 07:09:13;;;;;;;;;;;17.60;43.00;;;;;;1548822;76;828;-70
2024/02/09 07:11:14;;;;;;;;;;;17.60;43.10;;;;;;1547905;75;1653;-70
2024/02/09 07:13:16;;;;;;;;;;;17.60;43.10;;;;;;1556545;75;1153;-70
2024/02/09 07:15:18;;;;;;;;;;;17.60;43.00;;;;;;1551724;75;708;-71
2024/02/09 07:17:20;;;;;;;;;;;17.50;43.00;;;;;;1553817;75;610;-69
2024/02/09 07:19:22;;;;;;;;;;;17.60;43.00;;;;;;1550676;76;713;-71
2024/02/09 07:21:24;;;;;;;;;;;17.60;43.00;;;;;;1546620;76;1908;-70
2024/02/09 07:23:28;;;;;;;;;;;17.60;43.00;;;;;;1540049;74;1164;-71
2024/02/09 07:25:30;;;;;;;;;;;17.60;43.00;;;;;;1548579;75;720;-71
2024/02/09 07:27:32;;;;;;;;;;;17.60;43.10;;;;;;1545875;76;817;-71
2024/02/09 07:29:34;;;;;;;;;;;17.60;43.00;;;;;;1546470;76;793;-71
2024/02/09 07:31:36;;;;;;;;;;;17.60;43.10;;;;;;1550747;75;783;-70
2024/02/09 07:33:38;;;;;;;;;;;17.60;43.00;;;;;;1545915;74;1123;-71
2024/02/09 07:35:40;;;;;;;;;;;17.60;43.00;;;;;;1551747;74;726;-69
2024/02/09 07:37:41;;;;;;;;;;;17.60;43.10;;;;;;1547639;76;747;-69
2024/02/09 07:39:43;;;;;;;;;;;17.60;43.10;;;;;;1542742;76;688;-71
2024/02/09 07:41:45;;;;;;;;;;;17.60;43.00;;;;;;1545234;76;1915;-70
2024/02/09 07:43:47;;;;;;;;;;;17.60;43.00;;;;;;1546690;75;1119;-71
2024/02/09 07:45:49;;;;;;;;;;;17.60;43.10;;;;;;1545914;75;720;-70
2024/02/09 07:47:53;;;;;;;;;;;17.60;43.00;;;;;;1546191;76;733;-71
2024/02/09 07:49:55;;;;;;;;;;;17.60;43.10;;;;;;1548438;75;820;-70
2024/02/09 07:51:58;;;;;;;;;;;17.60;43.00;;;;;;1547088;76;796;-70
2024/02/09 07:54:00;;;;;;;;;;;17.60;43.10;;;;;;1548989;75;1154;-71
2024/02/09 07:56:02;;;;;;;;;;;17.60;43.10;;;;;;1544837;75;672;-70
2024/02/09 07:58:04;;;;;;;;;;;17.60;43.00;;;;;;1547635;75;790;-71
2024/02/09 08:00:09;;;;;;;;;;;17.60;43.10;;;;;;1548432;75;652;-71
2024/02/09 08:02:11;;;;;;;;;;;17.60;43.10;;;;;;1544737;76;1913;-71
2024/02/09 08:04:13;;;;;;;;;;;17.60;43.10;;;;;;1552722;75;1109;-70
2024/02/09 08:06:16;;;;;;;;;;;17.60;43.10;;;;;;1560274;75;643;-70
2024/02/09 08:08:19;;;;;;;;;;;17.60;43.10;;;;;;1551181;75;1356;-70
2024/02/09 08:10:21;;;;;;;;;;;17.60;43.10;;;;;;1546572;75;712;-70
2024/02/09 08:12:23;;;;;;;;;;;17.60;43.00;;;;;;1544855;76;681;-71
2024/02/09 08:14:27;;;;;;;;;;;17.60;43.10;;;;;;1555155;75;1124;-71
2024/02/09 08:16:29;;;;;;;;;;;17.60;43.10;;;;;;1550744;75;1783;-70
2024/02/09 08:18:32;;;;;;;;;;;17.60;43.10;;;;;;1542735;76;792;-70
2024/02/09 08:20:36;;;;;;;;;;;17.60;43.10;;;;;;1544564;76;681;-71
2024/02/09 08:22:43;;;;;;;;;;;17.60;43.10;;;;;;1547033;76;1927;-71
2024/02/09 08:24:41;;;;;;;;;;;17.60;43.10;;;;;;1548263;75;1170;-70
2024/02/09 08:26:42;;;;;;;;;;;17.60;43.10;;;;;;1538095;75;743;-71
2024/02/09 08:28:45;;;;;;;;;;;17.60;43.10;;;;;;1552744;75;1011;-71
2024/02/09 08:30:47;;;;;;;;;;;17.60;43.10;;;;;;1546845;76;961;-70
2024/02/09 08:32:49;;;;;;;;;;;17.60;43.10;;;;;;1548502;75;1128;-69
2024/02/09 08:34:51;;;;;;;;;;;17.60;43.10;;;;;;1549317;76;712;-71
2024/02/09 08:36:53;;;;;;;;;;;17.60;43.10;;;;;;1548232;76;657;-71
2024/02/09 08:38:55;;;;;;;;;;;17.60;43.10;;;;;;1548845;75;786;-71
2024/02/09 08:40:58;;;;;;;;;;;17.60;43.10;;;;;;1545945;75;594;-69
2024/02/09 08:43:00;;;;;;;;;;;17.60;43.10;;;;;;1551319;75;1941;-67
2024/02/09 08:45:02;;;;;;;;;;;17.60;43.10;;;;;;1542469;75;667;-69
2024/02/09 08:47:04;;;;;;;;;;;17.60;43.10;;;;;;1547594;75;752;-69
2024/02/09 08:49:06;;;;;;;;;;;17.60;43.10;;;;;;1548909;76;602;-68
2024/02/09 08:51:08;;;;;;;;;;;17.60;43.10;;;;;;1549504;76;684;-68
2024/02/09 08:53:10;;;;;;;;;;;17.50;43.10;;;;;;1552512;75;1141;-68
2024/02/09 08:55:11;;;;;;;;;;;17.60;43.10;;;;;;1556068;75;764;-69
2024/02/09 08:57:14;;;;;;;;;;;17.60;43.10;;;;;;1547239;75;821;-69
2024/02/09 08:59:16;;;;;;;;;;;17.60;43.10;;;;;;1551792;75;751;-68
2024/02/09 09:01:18;;;;;;;;;;;17.60;43.10;;;;;;1551464;75;644;-69
2024/02/09 09:03:20;;;;;;;;;;;17.60;43.10;;;;;;1552595;75;1922;-68
2024/02/09 09:05:22;;;;;;;;;;;17.60;43.10;;;;;;1549078;76;619;-70
2024/02/09 09:07:24;;;;;;;;;;;17.60;43.10;;;;;;1550533;75;1577;-67
2024/02/09 09:09:26;;;;;;;;;;;17.60;43.10;;;;;;1553519;76;736;-68
2024/02/09 09:11:28;;;;;;;;;;;17.60;43.10;;;;;;1546512;76;717;-70
2024/02/09 09:13:30;;;;;;;;;;;17.60;43.10;;;;;;1555421;76;1111;-70
2024/02/09 09:15:32;;;;;;;;;;;17.60;43.10;;;;;;1545277;75;687;-69
2024/02/09 09:17:34;;;;;;;;;;;17.60;43.10;;;;;;1548346;76;599;-70
2024/02/09 09:19:36;;;;;;;;;;;17.60;43.10;;;;;;1548106;75;747;-68
2024/02/09 09:21:37;;;;;;;;;;;17.60;43.10;;;;;;1552418;76;1952;-69
2024/02/09 09:23:40;;;;;;;;;;;17.60;43.10;;;;;;1554925;75;1130;-69
2024/02/09 09:25:42;;;;;;;;;;;17.60;43.10;;;;;;1542589;75;809;-68
2024/02/09 09:27:45;;;;;;;;;;;17.60;43.10;;;;;;1548750;75;770;-69
2024/02/09 09:29:47;;;;;;;;;;;17.60;43.10;;;;;;1556125;75;716;-70
2024/02/09 09:31:50;;;;;;;;;;;17.60;43.10;;;;;;1544857;75;721;-71
2024/02/09 09:33:53;;;;;;;;;;;17.60;43.10;;;;;;1544668;75;1204;-71
2024/02/09 09:35:55;;;;;;;;;;;17.60;43.10;;;;;;1549382;76;709;-71
2024/02/09 09:37:58;;;;;;;;;;;17.70;43.20;;;;;;1549913;76;649;-70
2024/02/09 09:40:00;;;;;;;;;;;17.60;43.10;;;;;;1548252;75;724;-70
2024/02/09 09:42:01;;;;;;;;;;;17.60;43.10;;;;;;1533428;76;1939;-71
2024/02/09 09:44:03;;;;;;;;;;;17.60;43.10;;;;;;1547068;75;1145;-69
2024/02/09 09:46:08;;;;;;;;;;;17.20;42.80;;;;;;1552829;76;707;-71
2024/02/09 09:48:11;;;;;;;;;;;17.60;43.10;;;;;;1548201;76;736;-71
2024/02/09 09:50:13;;;;;;;;;;;17.60;43.10;;;;;;1550283;76;667;-70
2024/02/09 09:52:28;;;;;;;;;;;17.60;43.10;;;;;;1545674;75;684;-71
2024/02/09 09:54:34;;;;;;;;;;;17.60;43.10;;;;;;1551477;75;696;-70
2024/02/09 09:56:39;;;;;;;;;;;17.60;43.10;;;;;;1549739;76;712;-70
2024/02/09 09:58:41;;;;;;;;;;;17.60;43.10;;;;;;1545721;75;1618;-70
2024/02/09 10:00:43;;;;;;;;;;;17.70;43.20;;;;;;1555353;75;736;-70
2024/02/09 10:02:44;;;;;;;;;;;17.60;43.10;;;;;;1547667;76;1930;-70
2024/02/09 10:04:46;;;;;;;;;;;17.60;43.10;;;;;;1545160;76;744;-69
2024/02/09 10:06:48;;;;;;;;;;;17.60;43.00;;;;;;1552391;75;1458;-70
2024/02/09 10:08:50;;;;;;;;;;;17.60;43.10;;;;;;1549877;76;742;-70
2024/02/09 10:10:52;;;;;;;;;;;17.60;43.10;;;;;;1549592;75;663;-71
2024/02/09 10:13:01;;;;;;;;;;;17.60;43.10;;;;;;1546038;76;1150;-70
2024/02/09 10:15:05;;;;;;;;;;;17.60;43.10;;;;;;1539808;75;968;-69
2024/02/09 10:17:11;;;;;;;;;;;17.60;43.00;;;;;;1547845;76;1338;-71
2024/02/09 10:19:13;;;;;;;;;;;17.60;43.10;;;;;;1544935;75;1481;-71
2024/02/09 10:21:14;;;;;;;;;;;17.60;43.10;;;;;;1545071;75;1617;-71
2024/02/09 10:23:16;;;;;;;;;;;17.60;43.10;;;;;;1553741;75;1934;-70
2024/02/09 10:25:20;;;;;;;;;;;17.60;43.10;;;;;;1547694;76;664;-71
2024/02/09 10:27:22;;;;;;;;;;;17.60;43.10;;;;;;1537912;75;695;-71
2024/02/09 10:29:24;;;;;;;;;;;17.70;43.20;;;;;;1548887;76;744;-70
2024/02/09 10:31:28;;;;;;;;;;;17.60;43.10;;;;;;1545965;75;1254;-71
2024/02/09 10:33:30;;;;;;;;;;;17.60;43.10;;;;;;1519214;77;1165;-71
2024/02/09 10:35:32;;;;;;;;;;;17.60;43.10;;;;;;1482174;79;655;-70
2024/02/09 10:37:34;;;;;;;;;;;17.60;43.10;;;;;;1500638;78;670;-71
2024/02/09 10:39:36;;;;;;;;;;;17.70;43.20;;;;;;1496958;77;729;-71
2024/02/09 10:41:39;;;;;;;;;;;17.60;43.10;;;;;;1498991;78;717;-71
2024/02/09 10:43:41;;;;;;;;;;;17.60;43.10;;;;;;1503942;77;1933;-71
2024/02/09 10:45:43;;;;;;;;;;;17.60;43.10;;;;;;1509213;77;657;-70
2024/02/09 10:47:45;;;;;;;;;;;17.70;43.20;;;;;;1499864;77;757;-71
2024/02/09 10:49:47;;;;;;;;;;;17.60;43.10;;;;;;1504715;77;719;-70
2024/02/09 10:51:49;;;;;;;;;;;17.60;43.10;;;;;;1499245;77;747;-69
2024/02/09 10:53:53;;;;;;;;;;;17.60;43.10;;;;;;1506614;77;1132;-70
2024/02/09 10:55:58;;;;;;;;;;;17.60;43.10;;;;;;1499869;77;971;-70
2024/02/09 10:58:00;;;;;;;;;;;17.60;43.10;;;;;;1506686;77;699;-71
2024/02/09 11:00:04;;;;;;;;;;;17.60;43.10;;;;;;1503268;77;782;-71
2024/02/09 11:02:05;;;;;;;;;;;17.70;43.10;;;;;;1498767;77;1141;-70
2024/02/09 11:04:07;;;;;;;;;;;18.20;43.40;;;;;;1502583;77;1945;-69
2024/02/09 11:06:10;;;;;;;;;;;17.70;43.20;;;;;;1511576;77;650;-69
2024/02/09 11:08:11;;;;;;;;;;;17.60;43.10;;;;;;1511451;77;1392;-70
2024/02/09 11:10:17;;;;;;;;;;;17.60;43.10;;;;;;1498486;77;765;-70
2024/02/09 11:12:20;;;;;;;;;;;17.60;43.10;;;;;;1520787;77;648;-70
2024/02/09 11:14:23;;;;;;;;;;;17.70;43.20;;;;;;1511689;77;1244;-71
2024/02/09 11:16:25;;;;;;;;;;;17.60;43.10;;;;;;1505319;77;972;-71
2024/02/09 11:18:35;;;;;;;;;;;17.60;43.10;;;;;;1507146;77;749;-71
2024/02/09 11:20:38;;;;;;;;;;;17.60;43.10;;;;;;1517172;77;673;-70
2024/02/09 11:22:42;;;;;;;;;;;17.60;43.10;;;;;;1503853;77;1905;-70
2024/02/09 11:24:51;;;;;;;;;;;17.60;43.10;;;;;;1508919;77;1118;-71
2024/02/09 11:26:53;;;;;;;;;;;17.60;43.10;;;;;;1511325;77;672;-71
2024/02/09 11:28:55;;;;;;;;;;;17.60;43.10;;;;;;1506974;77;744;-70
2024/02/09 11:30:58;;;;;;;;;;;17.70;43.10;;;;;;1506769;77;662;-70
2024/02/09 11:33:00;;;;;;;;;;;17.60;43.10;;;;;;1513524;77;1148;-71
2024/02/09 11:35:02;;;;;;;;;;;17.60;43.10;;;;;;1497898;77;720;-71
2024/02/09 11:37:03;;;;;;;;;;;17.60;43.10;;;;;;1508251;77;664;-70
2024/02/09 11:39:06;;;;;;;;;;;17.60;43.10;;;;;;1506239;77;602;-71
2024/02/09 11:41:08;;;;;;;;;;;17.60;43.10;;;;;;1506907;77;721;-71
2024/02/09 11:43:10;;;;;;;;;;;17.70;43.20;;;;;;1514888;77;1914;-70
2024/02/09 11:45:12;;;;;;;;;;;17.60;43.10;;;;;;1486564;78;759;-69
2024/02/09 11:47:14;;;;;;;;;;;17.60;43.10;;;;;;1484069;79;744;-70
2024/02/09 11:49:16;;;;;;;;;;;17.60;43.10;;;;;;1543130;75;712;-69
2024/02/09 11:51:21;;;;;;;;;;;17.60;43.10;;;;;;1559656;74;700;-71
2024/02/09 11:53:23;;;;;;;;;;;17.60;43.10;;;;;;1554528;75;1126;-71
2024/02/09 11:55:24;;;;;;;;;;;17.70;43.20;;;;;;1548557;76;712;-70
2024/02/09 11:57:26;;;;;;;;;;;17.60;43.10;;;;;;1550464;75;707;-70
2024/02/09 11:59:29;;;;;;;;;;;17.60;43.10;;;;;;1557217;75;799;-69
2024/02/09 12:01:31;;;;;;;;;;;17.60;43.10;;;;;;1547612;76;602;-70
2024/02/09 12:03:32;;;;;;;;;;;17.60;43.10;;;;;;1547478;76;1941;-71
2024/02/09 12:05:35;;;;;;;;;;;17.60;43.10;;;;;;1550623;75;716;-71
2024/02/09 12:07:37;;;;;;;;;;;17.60;43.10;;;;;;1552692;75;1502;-70
2024/02/09 12:09:39;;;;;;;;;;;17.60;43.10;;;;;;1552678;75;785;-71
2024/02/09 12:11:50;;;;;;;;;;;17.60;43.10;;;;;;1539703;76;675;-71
2024/02/09 12:13:48;;;;;;;;;;;17.70;43.10;;;;;;1540360;75;1138;-70
2024/02/09 12:15:49;;;;;;;;;;;17.70;43.20;;;;;;1546762;75;681;-69
2024/02/09 12:17:51;;;;;;;;;;;17.60;43.10;;;;;;1544077;75;691;-70
2024/02/09 12:19:54;;;;;;;;;;;17.60;43.10;;;;;;1548573;76;740;-71
2024/02/09 12:21:59;;;;;;;;;;;17.70;43.20;;;;;;1554786;76;687;-70
2024/02/09 12:24:00;;;;;;;;;;;17.60;43.10;;;;;;1555079;76;1932;-69
2024/02/09 12:26:05;;;;;;;;;;;17.70;43.20;;;;;;1537631;76;783;-69
2024/02/09 12:28:09;;;;;;;;;;;17.70;43.20;;;;;;1544869;76;979;-70
2024/02/09 12:30:09;;;;;;;;;;;17.70;43.10;;;;;;1543909;75;1466;-71
2024/02/09 12:32:11;;;;;;;;;;;17.60;43.10;;;;;;1513038;77;678;-70
2024/02/09 12:34:16;;;;;;;;;;;17.70;43.20;;;;;;1541435;75;1106;-70
2024/02/09 12:36:23;;;;;;;;;;;17.70;43.20;;;;;;1547181;75;895;-71
2024/02/09 12:38:22;;;;;;;;;;;17.60;43.10;;;;;;1545304;75;1076;-69
2024/02/09 12:40:25;;;;;;;;;;;17.70;43.20;;;;;;1551472;75;884;-71
2024/02/09 12:42:41;;;;;;;;;;;17.60;43.10;;;;;;1551637;75;744;-71
2024/02/09 12:44:33;;;;;;;;;;;17.70;43.20;;;;;;1540283;76;1919;-71
2024/02/09 12:46:35;;;;;;;;;;;17.60;43.10;;;;;;1550189;76;682;-70
2024/02/09 12:48:36;;;;;;;;;;;17.70;43.20;;;;;;1555345;75;638;-70
2024/02/09 12:50:38;;;;;;;;;;;17.60;43.10;;;;;;1536127;75;694;-71
2024/02/09 12:52:43;;;;;;;;;;;17.60;43.10;;;;;;1543823;75;1155;-69
2024/02/09 12:54:44;;;;;;;;;;;17.60;43.10;;;;;;1552831;75;951;-72
2024/02/09 12:56:46;;;;;;;;;;;17.60;43.10;;;;;;1545064;76;771;-70
2024/02/09 12:58:48;;;;;;;;;;;17.60;43.10;;;;;;1544878;76;785;-71
2024/02/09 13:00:52;;;;;;;;;;;17.60;43.10;;;;;;1555965;75;765;-69
2024/02/09 13:02:54;;;;;;;;;;;17.70;43.20;;;;;;1547085;75;1919;-70
2024/02/09 13:04:56;;;;;;;;;;;17.60;43.10;;;;;;1548218;76;792;-71
2024/02/09 13:06:58;;;;;;;;;;;17.70;43.20;;;;;;1550817;75;1382;-70
2024/02/09 13:09:00;;;;;;;;;;;17.70;43.20;;;;;;1549246;76;594;-70
2024/02/09 13:11:01;;;;;;;;;;;17.70;43.20;;;;;;1548906;76;717;-71
2024/02/09 13:13:06;;;;;;;;;;;17.70;43.20;;;;;;1552528;76;1140;-71
2024/02/09 13:15:09;;;;;;;;;;;17.70;43.10;;;;;;1544890;75;656;-70
2024/02/09 13:17:11;;;;;;;;;;;17.60;43.10;;;;;;1548637;75;758;-71
2024/02/09 13:19:13;;;;;;;;;;;17.70;43.20;;;;;;1540623;76;773;-70
2024/02/09 13:21:15;;;;;;;;;;;17.70;43.20;;;;;;1549933;76;931;-71
2024/02/09 13:23:23;;;;;;;;;;;17.70;43.10;;;;;;1544217;75;1949;-71
2024/02/09 13:25:20;;;;;;;;;;;17.60;43.10;;;;;;1547340;75;966;-70
2024/02/09 13:27:24;;;;;;;;;;;17.70;43.10;;;;;;1546308;75;734;-71
2024/02/09 13:29:26;;;;;;;;;;;17.60;43.10;;;;;;1545382;76;716;-71
2024/02/09 13:31:28;;;;;;;;;;;17.70;43.10;;;;;;1547854;75;742;-71
2024/02/09 13:33:30;;;;;;;;;;;17.70;43.20;;;;;;1546901;75;1088;-70
2024/02/09 13:35:32;;;;;;;;;;;17.70;43.20;;;;;;1540456;76;643;-71
2024/02/09 13:37:34;;;;;;;;;;;17.70;43.20;;;;;;1549968;76;722;-70
2024/02/09 13:39:36;;;;;;;;;;;17.60;43.10;;;;;;1550376;75;708;-70
2024/02/09 13:41:38;;;;;;;;;;;17.70;43.20;;;;;;1548480;76;775;-68
2024/02/09 13:43:40;;;;;;;;;;;17.70;43.20;;;;;;1547659;75;1944;-71
2024/02/09 13:45:44;;;;;;;;;;;17.70;43.20;;;;;;1548756;76;507;-70
2024/02/09 13:47:45;;;;;;;;;;;17.60;43.10;;;;;;1532654;76;898;-71
2024/02/09 13:49:47;;;;;;;;;;;17.60;43.10;;;;;;1547192;75;671;-70
2024/02/09 13:51:49;;;;;;;;;;;17.70;43.20;;;;;;1548289;76;762;-70
2024/02/09 13:53:51;;;;;;;;;;;17.70;43.20;;;;;;1551139;75;1181;-70
2024/02/09 13:55:53;;;;;;;;;;;17.70;43.20;;;;;;1544428;76;567;-71
2024/02/09 13:57:55;;;;;;;;;;;17.70;43.20;;;;;;1544552;75;720;-71
2024/02/09 13:59:57;;;;;;;;;;;17.60;43.10;;;;;;1551691;76;714;-72